sensor_id;sensor_type;location;lat;lon;timestamp;pressure;altitude;pressure_sealevel;temperature;humidity
19843;BME280;10082;51.038;6.992;2022-10-26T00:02:16;112171.53;;;-144.33;100.00
19843;BME280;10082;51.038;6.992;2022-10-26T00:04:58;112171.53;;;-144.33;100.00
19843;BME280;10082;51.038;6.992;2022-10-26T00:07:30;112171.53;;;-144.33;100.00
19843;BME280;10082;51.038;6.992;2022-10-26T00:09:57;112171.53;;;-144.33;100.00
19843;BME280;10082;51.038;6.992;2022-10-26T00:12:47;112171.53;;;-144.33;100.00
19843;BME280;10082;51.038;6.992;2022-10-26T00:15:20;112171.53;;;-144.33;100.00
19843;BME280;10082;51.038;6.992;2022-10-26T00:18:05;112171.53;;;-144.33;100.00
19843;BME280;10082;51.038;6.992;2022-10-26T00:20:33;112171.53;;;-144.33;100.00
19843;BME280;10082;51.038;6.992;2022-10-26T00:23:05;112171.53;;;-144.33;100.00
19843;BME280;10082;51.038;6.992;2022-10-26T00:25:53;112171.53;;;-144.33;100.00
19843;BME280;10082;51.038;6.992;2022-10-26T00:28:24;112171.53;;;-144.33;100.00
19843;BME280;10082;51.038;6.992;2022-10-26T00:30:58;112171.53;;;-144.33;100.00
19843;BME280;10082;51.038;6.992;2022-10-26T00:33:29;112171.53;;;-144.33;100.00
19843;BME280;10082;51.038;6.992;2022-10-26T00:36:12;112171.53;;;-144.33;100.00
19843;BME280;10082;51.038;6.992;2022-10-26T00:38:52;112171.53;;;-144.33;100.00
19843;BME280;10082;51.038;6.992;2022-10-26T00:41:30;112171.53;;;-144.33;100.00
19843;BME280;10082;51.038;6.992;2022-10-26T00:47:44;112171.53;;;-144.33;100.00
19843;BME280;10082;51.038;6.992;2022-10-26T00:50:38;112171.53;;;-144.33;100.00
19843;BME280;10082;51.038;6.992;2022-10-26T00:53:23;112171.53;;;-144.33;100.00
19843;BME280;10082;51.038;6.992;2022-10-26T01:12:30;112171.53;;;-144.33;100.00
19843;BME280;10082;51.038;6.992;2022-10-26T01:15:20;112171.53;;;-144.33;100.00
19843;BME280;10082;51.038;6.992;2022-10-26T01:18:12;112171.53;;;-144.33;100.00
19843;BME280;10082;51.038;6.992;2022-10-26T01:21:12;112171.53;;;-144.33;100.00
19843;BME280;10082;51.038;6.992;2022-10-26T01:27:24;112171.53;;;-144.33;100.00
19843;BME280;10082;51.038;6.992;2022-10-26T01:30:20;112171.53;;;-144.33;100.00
19843;BME280;10082;51.038;6.992;2022-10-26T01:33:01;112171.53;;;-144.33;100.00
19843;BME280;10082;51.038;6.992;2022-10-26T01:35:53;112171.53;;;-144.33;100.00
19843;BME280;10082;51.038;6.992;2022-10-26T01:38:33;112171.53;;;-144.33;100.00
19843;BME280;10082;51.038;6.992;2022-10-26T01:41:07;112171.53;;;-144.33;100.00
19843;BME280;10082;51.038;6.992;2022-10-26T01:43:54;112171.53;;;-144.33;100.00
19843;BME280;10082;51.038;6.992;2022-10-26T01:46:40;112171.53;;;-144.33;100.00
19843;BME280;10082;51.038;6.992;2022-10-26T01:49:30;112171.53;;;-144.33;100.00
19843;BME280;10082;51.038;6.992;2022-10-26T01:52:10;112171.53;;;-144.33;100.00
19843;BME280;10082;51.038;6.992;2022-10-26T01:54:38;112171.53;;;-144.33;100.00
19843;BME280;10082;51.038;6.992;2022-10-26T01:57:20;112171.53;;;-144.33;100.00
19843;BME280;10082;51.038;6.992;2022-10-26T02:00:10;112171.53;;;-144.33;100.00
19843;BME280;10082;51.038;6.992;2022-10-26T02:03:05;112171.53;;;-144.33;100.00
19843;BME280;10082;51.038;6.992;2022-10-26T02:05:58;112171.53;;;-144.33;100.00
19843;BME280;10082;51.038;6.992;2022-10-26T02:08:48;112171.53;;;-144.33;100.00
19843;BME280;10082;51.038;6.992;2022-10-26T02:11:38;112171.53;;;-144.33;100.00
19843;BME280;10082;51.038;6.992;2022-10-26T02:14:27;112171.53;;;-144.33;100.00
19843;BME280;10082;51.038;6.992;2022-10-26T02:17:06;112171.53;;;-144.33;100.00
19843;BME280;10082;51.038;6.992;2022-10-26T02:19:56;112171.53;;;-144.33;100.00
19843;BME280;10082;51.038;6.992;2022-10-26T02:22:45;112171.53;;;-144.33;100.00
19843;BME280;10082;51.038;6.992;2022-10-26T02:25:21;112171.53;;;-144.33;100.00
19843;BME280;10082;51.038;6.992;2022-10-26T02:28:00;112171.53;;;-144.33;100.00
19843;BME280;10082;51.038;6.992;2022-10-26T02:30:32;112171.53;;;-144.33;100.00
19843;BME280;10082;51.038;6.992;2022-10-26T02:33:13;112171.53;;;-144.33;100.00
19843;BME280;10082;51.038;6.992;2022-10-26T02:35:55;112171.53;;;-144.33;100.00
19843;BME280;10082;51.038;6.992;2022-10-26T02:38:39;112171.53;;;-144.33;100.00
19843;BME280;10082;51.038;6.992;2022-10-26T02:41:15;112171.53;;;-144.33;100.00
19843;BME280;10082;51.038;6.992;2022-10-26T02:43:51;112171.53;;;-144.33;100.00
19843;BME280;10082;51.038;6.992;2022-10-26T02:46:35;112171.53;;;-144.33;100.00
19843;BME280;10082;51.038;6.992;2022-10-26T02:49:09;112171.53;;;-144.33;100.00
19843;BME280;10082;51.038;6.992;2022-10-26T02:51:45;112171.53;;;-144.33;100.00
19843;BME280;10082;51.038;6.992;2022-10-26T02:54:25;112171.53;;;-144.33;100.00
19843;BME280;10082;51.038;6.992;2022-10-26T02:57:01;112171.53;;;-144.33;100.00
19843;BME280;10082;51.038;6.992;2022-10-26T02:59:36;112171.53;;;-144.33;100.00
19843;BME280;10082;51.038;6.992;2022-10-26T03:02:27;112171.53;;;-144.33;100.00
19843;BME280;10082;51.038;6.992;2022-10-26T03:05:28;112171.53;;;-144.33;100.00
19843;BME280;10082;51.038;6.992;2022-10-26T03:08:00;112171.53;;;-144.33;100.00
19843;BME280;10082;51.038;6.992;2022-10-26T03:10:28;112171.53;;;-144.33;100.00
19843;BME280;10082;51.038;6.992;2022-10-26T03:12:59;112171.53;;;-144.33;100.00
19843;BME280;10082;51.038;6.992;2022-10-26T03:15:28;112171.53;;;-144.33;100.00
19843;BME280;10082;51.038;6.992;2022-10-26T03:18:03;112171.53;;;-144.33;100.00
19843;BME280;10082;51.038;6.992;2022-10-26T03:20:38;112171.53;;;-144.33;100.00
19843;BME280;10082;51.038;6.992;2022-10-26T03:26:14;112171.53;;;-144.33;100.00
19843;BME280;10082;51.038;6.992;2022-10-26T03:28:44;112171.53;;;-144.33;100.00
19843;BME280;10082;51.038;6.992;2022-10-26T03:31:13;112171.53;;;-144.33;100.00
19843;BME280;10082;51.038;6.992;2022-10-26T03:33:42;112171.53;;;-144.33;100.00
19843;BME280;10082;51.038;6.992;2022-10-26T03:36:38;112171.53;;;-144.33;100.00
19843;BME280;10082;51.038;6.992;2022-10-26T03:39:24;112171.53;;;-144.33;100.00
19843;BME280;10082;51.038;6.992;2022-10-26T03:41:55;112171.53;;;-144.33;100.00
19843;BME280;10082;51.038;6.992;2022-10-26T03:44:33;112171.53;;;-144.33;100.00
19843;BME280;10082;51.038;6.992;2022-10-26T03:47:02;112171.53;;;-144.33;100.00
19843;BME280;10082;51.038;6.992;2022-10-26T03:49:31;112171.53;;;-144.33;100.00
19843;BME280;10082;51.038;6.992;2022-10-26T03:51:58;112171.53;;;-144.33;100.00
19843;BME280;10082;51.038;6.992;2022-10-26T03:54:27;112171.53;;;-144.33;100.00
19843;BME280;10082;51.038;6.992;2022-10-26T03:56:57;112171.53;;;-144.33;100.00
19843;BME280;10082;51.038;6.992;2022-10-26T03:59:25;112171.53;;;-144.33;100.00
19843;BME280;10082;51.038;6.992;2022-10-26T04:01:53;112171.53;;;-144.33;100.00
19843;BME280;10082;51.038;6.992;2022-10-26T04:04:35;112171.53;;;-144.33;100.00
19843;BME280;10082;51.038;6.992;2022-10-26T04:07:08;112171.53;;;-144.33;100.00
19843;BME280;10082;51.038;6.992;2022-10-26T04:09:37;112171.53;;;-144.33;100.00
19843;BME280;10082;51.038;6.992;2022-10-26T04:12:15;112171.53;;;-144.33;100.00
19843;BME280;10082;51.038;6.992;2022-10-26T04:15:05;112171.53;;;-144.33;100.00
19843;BME280;10082;51.038;6.992;2022-10-26T04:17:43;112171.53;;;-144.33;100.00
19843;BME280;10082;51.038;6.992;2022-10-26T04:20:20;112171.53;;;-144.33;100.00
19843;BME280;10082;51.038;6.992;2022-10-26T04:22:47;112171.53;;;-144.33;100.00
19843;BME280;10082;51.038;6.992;2022-10-26T04:25:23;112171.53;;;-144.33;100.00
19843;BME280;10082;51.038;6.992;2022-10-26T04:27:56;112171.53;;;-144.33;100.00
19843;BME280;10082;51.038;6.992;2022-10-26T04:30:25;112171.53;;;-144.33;100.00
19843;BME280;10082;51.038;6.992;2022-10-26T04:32:59;112171.53;;;-144.33;100.00
19843;BME280;10082;51.038;6.992;2022-10-26T04:35:44;112171.53;;;-144.33;100.00
19843;BME280;10082;51.038;6.992;2022-10-26T04:38:16;112171.53;;;-144.33;100.00
19843;BME280;10082;51.038;6.992;2022-10-26T04:41:00;112171.53;;;-144.33;100.00
19843;BME280;10082;51.038;6.992;2022-10-26T04:43:41;112171.53;;;-144.33;100.00
19843;BME280;10082;51.038;6.992;2022-10-26T04:46:10;112171.53;;;-144.33;100.00
19843;BME280;10082;51.038;6.992;2022-10-26T04:48:43;112171.53;;;-144.33;100.00
19843;BME280;10082;51.038;6.992;2022-10-26T04:51:17;112171.53;;;-144.33;100.00
19843;BME280;10082;51.038;6.992;2022-10-26T04:53:59;112171.53;;;-144.33;100.00
19843;BME280;10082;51.038;6.992;2022-10-26T04:56:30;112171.53;;;-144.33;100.00
19843;BME280;10082;51.038;6.992;2022-10-26T04:59:30;112171.53;;;-144.33;100.00
19843;BME280;10082;51.038;6.992;2022-10-26T05:02:03;112171.53;;;-144.33;100.00
19843;BME280;10082;51.038;6.992;2022-10-26T05:04:39;112171.53;;;-144.33;100.00
19843;BME280;10082;51.038;6.992;2022-10-26T05:07:21;112171.53;;;-144.33;100.00
19843;BME280;10082;51.038;6.992;2022-10-26T05:10:05;112171.53;;;-144.33;100.00
19843;BME280;10082;51.038;6.992;2022-10-26T05:12:34;112171.53;;;-144.33;100.00
19843;BME280;10082;51.038;6.992;2022-10-26T05:15:31;112171.53;;;-144.33;100.00
19843;BME280;10082;51.038;6.992;2022-10-26T05:18:05;112171.53;;;-144.33;100.00
19843;BME280;10082;51.038;6.992;2022-10-26T05:20:37;112171.53;;;-144.33;100.00
19843;BME280;10082;51.038;6.992;2022-10-26T05:23:17;112171.53;;;-144.33;100.00
19843;BME280;10082;51.038;6.992;2022-10-26T05:25:48;112171.53;;;-144.33;100.00
19843;BME280;10082;51.038;6.992;2022-10-26T05:28:18;112171.53;;;-144.33;100.00
19843;BME280;10082;51.038;6.992;2022-10-26T05:31:19;112171.53;;;-144.33;100.00
19843;BME280;10082;51.038;6.992;2022-10-26T05:33:54;112171.53;;;-144.33;100.00
19843;BME280;10082;51.038;6.992;2022-10-26T05:36:47;112171.53;;;-144.33;100.00
19843;BME280;10082;51.038;6.992;2022-10-26T05:39:23;112171.53;;;-144.33;100.00
19843;BME280;10082;51.038;6.992;2022-10-26T05:41:51;112171.53;;;-144.33;100.00
19843;BME280;10082;51.038;6.992;2022-10-26T05:44:22;112171.53;;;-144.33;100.00
19843;BME280;10082;51.038;6.992;2022-10-26T05:46:54;112171.53;;;-144.33;100.00
19843;BME280;10082;51.038;6.992;2022-10-26T05:49:31;112171.53;;;-144.33;100.00
19843;BME280;10082;51.038;6.992;2022-10-26T05:52:00;112171.53;;;-144.33;100.00
19843;BME280;10082;51.038;6.992;2022-10-26T05:54:29;112171.53;;;-144.33;100.00
19843;BME280;10082;51.038;6.992;2022-10-26T05:57:04;112171.53;;;-144.33;100.00
19843;BME280;10082;51.038;6.992;2022-10-26T06:00:13;112171.53;;;-144.33;100.00
19843;BME280;10082;51.038;6.992;2022-10-26T06:03:17;112171.53;;;-144.33;100.00
19843;BME280;10082;51.038;6.992;2022-10-26T06:05:53;112171.53;;;-144.33;100.00
19843;BME280;10082;51.038;6.992;2022-10-26T06:08:35;112171.53;;;-144.33;100.00
19843;BME280;10082;51.038;6.992;2022-10-26T06:11:20;112171.53;;;-144.33;100.00
19843;BME280;10082;51.038;6.992;2022-10-26T06:13:51;112171.53;;;-144.33;100.00
19843;BME280;10082;51.038;6.992;2022-10-26T06:16:30;112171.53;;;-144.33;100.00
19843;BME280;10082;51.038;6.992;2022-10-26T06:22:36;112171.53;;;-144.33;100.00
19843;BME280;10082;51.038;6.992;2022-10-26T06:25:26;112171.53;;;-144.33;100.00
19843;BME280;10082;51.038;6.992;2022-10-26T06:28:06;112171.53;;;-144.33;100.00
19843;BME280;10082;51.038;6.992;2022-10-26T06:30:52;112171.53;;;-144.33;100.00
19843;BME280;10082;51.038;6.992;2022-10-26T06:33:36;112171.53;;;-144.33;100.00
19843;BME280;10082;51.038;6.992;2022-10-26T06:36:14;112171.53;;;-144.33;100.00
19843;BME280;10082;51.038;6.992;2022-10-26T06:39:12;112171.53;;;-144.33;100.00
19843;BME280;10082;51.038;6.992;2022-10-26T06:41:42;112171.53;;;-144.33;100.00
19843;BME280;10082;51.038;6.992;2022-10-26T06:44:21;112171.53;;;-144.33;100.00
19843;BME280;10082;51.038;6.992;2022-10-26T06:47:21;112171.53;;;-144.33;100.00
19843;BME280;10082;51.038;6.992;2022-10-26T06:50:16;112171.53;;;-144.33;100.00
19843;BME280;10082;51.038;6.992;2022-10-26T06:52:50;112171.53;;;-144.33;100.00
19843;BME280;10082;51.038;6.992;2022-10-26T06:55:40;112171.53;;;-144.33;100.00
19843;BME280;10082;51.038;6.992;2022-10-26T06:58:28;112171.53;;;-144.33;100.00
19843;BME280;10082;51.038;6.992;2022-10-26T07:01:04;112171.53;;;-144.33;100.00
19843;BME280;10082;51.038;6.992;2022-10-26T07:03:35;112171.53;;;-144.33;100.00
19843;BME280;10082;51.038;6.992;2022-10-26T07:06:05;112171.53;;;-144.33;100.00
19843;BME280;10082;51.038;6.992;2022-10-26T07:08:36;112171.53;;;-144.33;100.00
19843;BME280;10082;51.038;6.992;2022-10-26T07:11:14;112171.53;;;-144.33;100.00
19843;BME280;10082;51.038;6.992;2022-10-26T07:13:46;112171.53;;;-144.33;100.00
19843;BME280;10082;51.038;6.992;2022-10-26T07:16:16;112171.53;;;-144.33;100.00
19843;BME280;10082;51.038;6.992;2022-10-26T07:18:57;112171.53;;;-144.33;100.00
19843;BME280;10082;51.038;6.992;2022-10-26T07:21:30;112171.53;;;-144.33;100.00
19843;BME280;10082;51.038;6.992;2022-10-26T07:24:03;112171.53;;;-144.33;100.00
19843;BME280;10082;51.038;6.992;2022-10-26T07:26:38;112171.53;;;-144.33;100.00
19843;BME280;10082;51.038;6.992;2022-10-26T07:29:11;112171.53;;;-144.33;100.00
19843;BME280;10082;51.038;6.992;2022-10-26T07:31:38;112171.53;;;-144.33;100.00
19843;BME280;10082;51.038;6.992;2022-10-26T07:34:08;112171.53;;;-144.33;100.00
19843;BME280;10082;51.038;6.992;2022-10-26T07:36:36;112171.53;;;-144.33;100.00
19843;BME280;10082;51.038;6.992;2022-10-26T07:39:06;112171.53;;;-144.33;100.00
19843;BME280;10082;51.038;6.992;2022-10-26T07:41:38;112171.53;;;-144.33;100.00
19843;BME280;10082;51.038;6.992;2022-10-26T07:44:06;112171.53;;;-144.33;100.00
19843;BME280;10082;51.038;6.992;2022-10-26T07:46:33;112171.53;;;-144.33;100.00
19843;BME280;10082;51.038;6.992;2022-10-26T07:49:01;112171.53;;;-144.33;100.00
19843;BME280;10082;51.038;6.992;2022-10-26T07:51:34;112171.53;;;-144.33;100.00
19843;BME280;10082;51.038;6.992;2022-10-26T07:54:02;112171.53;;;-144.33;100.00
19843;BME280;10082;51.038;6.992;2022-10-26T07:56:30;112171.53;;;-144.33;100.00
19843;BME280;10082;51.038;6.992;2022-10-26T07:59:00;112171.53;;;-144.33;100.00
19843;BME280;10082;51.038;6.992;2022-10-26T08:01:28;112171.53;;;-144.33;100.00
19843;BME280;10082;51.038;6.992;2022-10-26T08:03:57;112171.53;;;-144.33;100.00
19843;BME280;10082;51.038;6.992;2022-10-26T08:06:25;112171.53;;;-144.33;100.00
19843;BME280;10082;51.038;6.992;2022-10-26T08:08:55;112171.53;;;-144.33;100.00
19843;BME280;10082;51.038;6.992;2022-10-26T08:11:25;112171.53;;;-144.33;100.00
19843;BME280;10082;51.038;6.992;2022-10-26T08:13:55;112171.53;;;-144.33;100.00
19843;BME280;10082;51.038;6.992;2022-10-26T08:16:26;112171.53;;;-144.33;100.00
19843;BME280;10082;51.038;6.992;2022-10-26T08:18:57;112171.53;;;-144.33;100.00
19843;BME280;10082;51.038;6.992;2022-10-26T08:21:31;112171.53;;;-144.33;100.00
19843;BME280;10082;51.038;6.992;2022-10-26T08:23:59;112171.53;;;-144.33;100.00
19843;BME280;10082;51.038;6.992;2022-10-26T08:27:19;112171.53;;;-144.33;100.00
19843;BME280;10082;51.038;6.992;2022-10-26T08:29:46;112171.53;;;-144.33;100.00
19843;BME280;10082;51.038;6.992;2022-10-26T08:32:35;112171.53;;;-144.33;100.00
19843;BME280;10082;51.038;6.992;2022-10-26T08:35:12;112171.53;;;-144.33;100.00
19843;BME280;10082;51.038;6.992;2022-10-26T08:37:41;112171.53;;;-144.33;100.00
19843;BME280;10082;51.038;6.992;2022-10-26T08:40:15;112171.53;;;-144.33;100.00
19843;BME280;10082;51.038;6.992;2022-10-26T08:42:59;112171.53;;;-144.33;100.00
19843;BME280;10082;51.038;6.992;2022-10-26T08:45:38;112171.53;;;-144.33;100.00
19843;BME280;10082;51.038;6.992;2022-10-26T08:48:15;112171.53;;;-144.33;100.00
19843;BME280;10082;51.038;6.992;2022-10-26T08:51:02;112171.53;;;-144.33;100.00
19843;BME280;10082;51.038;6.992;2022-10-26T08:53:40;112171.53;;;-144.33;100.00
19843;BME280;10082;51.038;6.992;2022-10-26T08:56:17;112171.53;;;-144.33;100.00
19843;BME280;10082;51.038;6.992;2022-10-26T08:58:57;112171.53;;;-144.33;100.00
19843;BME280;10082;51.038;6.992;2022-10-26T09:01:29;112171.53;;;-144.33;100.00
19843;BME280;10082;51.038;6.992;2022-10-26T09:04:01;112171.53;;;-144.33;100.00
19843;BME280;10082;51.038;6.992;2022-10-26T09:06:38;112171.53;;;-144.33;100.00
19843;BME280;10082;51.038;6.992;2022-10-26T09:09:15;112171.53;;;-144.33;100.00
19843;BME280;10082;51.038;6.992;2022-10-26T09:12:03;112171.53;;;-144.33;100.00
19843;BME280;10082;51.038;6.992;2022-10-26T09:14:42;112171.53;;;-144.33;100.00
19843;BME280;10082;51.038;6.992;2022-10-26T09:17:25;112171.53;;;-144.33;100.00
19843;BME280;10082;51.038;6.992;2022-10-26T09:20:18;112171.53;;;-144.33;100.00
19843;BME280;10082;51.038;6.992;2022-10-26T09:22:57;112171.53;;;-144.33;100.00
19843;BME280;10082;51.038;6.992;2022-10-26T09:25:34;112171.53;;;-144.33;100.00
19843;BME280;10082;51.038;6.992;2022-10-26T09:28:10;112171.53;;;-144.33;100.00
19843;BME280;10082;51.038;6.992;2022-10-26T09:30:44;112171.53;;;-144.33;100.00
19843;BME280;10082;51.038;6.992;2022-10-26T09:33:15;112171.53;;;-144.33;100.00
19843;BME280;10082;51.038;6.992;2022-10-26T09:35:47;112171.53;;;-144.33;100.00
19843;BME280;10082;51.038;6.992;2022-10-26T09:38:23;112171.53;;;-144.33;100.00
19843;BME280;10082;51.038;6.992;2022-10-26T09:41:00;112171.53;;;-144.33;100.00
19843;BME280;10082;51.038;6.992;2022-10-26T09:43:34;112171.53;;;-144.33;100.00
19843;BME280;10082;51.038;6.992;2022-10-26T09:46:15;112171.53;;;-144.33;100.00
19843;BME280;10082;51.038;6.992;2022-10-26T09:48:51;112171.53;;;-144.33;100.00
19843;BME280;10082;51.038;6.992;2022-10-26T09:51:24;112171.53;;;-144.33;97.58
19843;BME280;10082;51.038;6.992;2022-10-26T09:53:56;112171.53;;;-144.33;96.15
19843;BME280;10082;51.038;6.992;2022-10-26T09:56:27;112171.53;;;-144.33;96.69
19843;BME280;10082;51.038;6.992;2022-10-26T09:59:15;112171.53;;;-144.33;94.80
19843;BME280;10082;51.038;6.992;2022-10-26T10:01:47;112171.53;;;-144.33;93.95
19843;BME280;10082;51.038;6.992;2022-10-26T10:04:19;112171.53;;;-144.33;94.24
19843;BME280;10082;51.038;6.992;2022-10-26T10:07:21;112171.53;;;-144.33;90.01
19843;BME280;10082;51.038;6.992;2022-10-26T10:10:05;112171.53;;;-144.33;91.02
19843;BME280;10082;51.038;6.992;2022-10-26T10:12:34;112171.53;;;-144.33;90.46
19843;BME280;10082;51.038;6.992;2022-10-26T10:15:18;112171.53;;;-144.33;90.02
19843;BME280;10082;51.038;6.992;2022-10-26T10:17:48;112171.53;;;-144.33;88.67
19843;BME280;10082;51.038;6.992;2022-10-26T10:20:19;112171.53;;;-144.33;89.92
19843;BME280;10082;51.038;6.992;2022-10-26T10:22:56;112171.53;;;-144.33;90.69
19843;BME280;10082;51.038;6.992;2022-10-26T10:25:33;112171.53;;;-144.33;90.76
19843;BME280;10082;51.038;6.992;2022-10-26T10:28:02;112171.53;;;-144.33;87.93
19843;BME280;10082;51.038;6.992;2022-10-26T10:30:32;112171.53;;;-144.33;89.61
19843;BME280;10082;51.038;6.992;2022-10-26T10:33:06;112171.53;;;-144.33;89.70
19843;BME280;10082;51.038;6.992;2022-10-26T10:35:34;112171.53;;;-144.33;86.45
19843;BME280;10082;51.038;6.992;2022-10-26T10:38:12;112171.53;;;-144.33;86.92
19843;BME280;10082;51.038;6.992;2022-10-26T10:40:48;112171.53;;;-144.33;90.65
19843;BME280;10082;51.038;6.992;2022-10-26T10:43:16;112171.53;;;-144.33;93.84
19843;BME280;10082;51.038;6.992;2022-10-26T10:45:46;112171.53;;;-144.33;96.02
19843;BME280;10082;51.038;6.992;2022-10-26T10:48:17;112171.53;;;-144.33;96.78
19843;BME280;10082;51.038;6.992;2022-10-26T10:50:53;112171.53;;;-144.33;100.00
19843;BME280;10082;51.038;6.992;2022-10-26T10:53:34;112171.53;;;-144.33;100.00
19843;BME280;10082;51.038;6.992;2022-10-26T10:56:22;112171.53;;;-144.33;99.83
19843;BME280;10082;51.038;6.992;2022-10-26T10:59:04;112171.53;;;-144.33;100.00
19843;BME280;10082;51.038;6.992;2022-10-26T11:01:39;112171.53;;;-144.33;100.00
19843;BME280;10082;51.038;6.992;2022-10-26T11:04:24;112171.53;;;-144.33;100.00
19843;BME280;10082;51.038;6.992;2022-10-26T11:06:59;112171.53;;;-144.33;100.00
19843;BME280;10082;51.038;6.992;2022-10-26T11:09:33;112171.53;;;-144.33;100.00
19843;BME280;10082;51.038;6.992;2022-10-26T11:12:08;112171.53;;;-144.33;100.00
19843;BME280;10082;51.038;6.992;2022-10-26T11:14:40;112171.53;;;-144.33;100.00
19843;BME280;10082;51.038;6.992;2022-10-26T11:17:16;112171.53;;;-144.33;100.00
19843;BME280;10082;51.038;6.992;2022-10-26T11:19:48;112171.53;;;-144.33;100.00
19843;BME280;10082;51.038;6.992;2022-10-26T11:22:26;112171.53;;;-144.33;100.00
19843;BME280;10082;51.038;6.992;2022-10-26T11:25:15;112171.53;;;-144.33;100.00
19843;BME280;10082;51.038;6.992;2022-10-26T11:27:49;112171.53;;;-144.33;100.00
19843;BME280;10082;51.038;6.992;2022-10-26T11:30:21;112171.53;;;-144.33;100.00
19843;BME280;10082;51.038;6.992;2022-10-26T11:32:53;112171.53;;;-144.33;100.00
19843;BME280;10082;51.038;6.992;2022-10-26T11:35:28;112171.53;;;-144.33;100.00
19843;BME280;10082;51.038;6.992;2022-10-26T11:38:07;112171.53;;;-144.33;100.00
19843;BME280;10082;51.038;6.992;2022-10-26T11:40:48;112171.53;;;-144.33;98.75
19843;BME280;10082;51.038;6.992;2022-10-26T11:43:28;112171.53;;;-144.33;97.10
19843;BME280;10082;51.038;6.992;2022-10-26T11:46:03;112171.53;;;-144.33;94.51
19843;BME280;10082;51.038;6.992;2022-10-26T11:48:36;112171.53;;;-144.33;94.38
19843;BME280;10082;51.038;6.992;2022-10-26T11:51:16;112171.53;;;-144.33;92.96
19843;BME280;10082;51.038;6.992;2022-10-26T11:53:48;112171.53;;;-144.33;93.15
19843;BME280;10082;51.038;6.992;2022-10-26T11:56:31;112171.53;;;-144.33;90.76
19843;BME280;10082;51.038;6.992;2022-10-26T11:59:00;112171.53;;;-144.33;90.49
19843;BME280;10082;51.038;6.992;2022-10-26T12:01:32;112171.53;;;-144.33;89.92
19843;BME280;10082;51.038;6.992;2022-10-26T12:04:02;112171.53;;;-144.33;90.70
19843;BME280;10082;51.038;6.992;2022-10-26T12:06:31;112171.53;;;-144.33;89.55
19843;BME280;10082;51.038;6.992;2022-10-26T12:09:06;112171.53;;;-144.33;89.92
19843;BME280;10082;51.038;6.992;2022-10-26T12:11:47;112171.53;;;-144.33;86.48
19843;BME280;10082;51.038;6.992;2022-10-26T12:14:22;112171.53;;;-144.33;86.43
19843;BME280;10082;51.038;6.992;2022-10-26T12:16:57;112171.53;;;-144.33;85.95
19843;BME280;10082;51.038;6.992;2022-10-26T12:19:32;112171.53;;;-144.33;85.69
19843;BME280;10082;51.038;6.992;2022-10-26T12:22:11;112171.53;;;-144.33;84.88
19843;BME280;10082;51.038;6.992;2022-10-26T12:24:44;112171.53;;;-144.33;84.69
19843;BME280;10082;51.038;6.992;2022-10-26T12:27:33;112171.53;;;-144.33;83.33
19843;BME280;10082;51.038;6.992;2022-10-26T12:30:29;112171.53;;;-144.33;83.93
19843;BME280;10082;51.038;6.992;2022-10-26T12:33:09;112171.53;;;-144.33;84.25
19843;BME280;10082;51.038;6.992;2022-10-26T12:35:53;112171.53;;;-144.33;84.47
19843;BME280;10082;51.038;6.992;2022-10-26T12:41:26;112171.53;;;-144.33;83.82
19843;BME280;10082;51.038;6.992;2022-10-26T12:44:10;112171.53;;;-144.33;83.21
19843;BME280;10082;51.038;6.992;2022-10-26T12:46:53;112171.53;;;-144.33;83.45
19843;BME280;10082;51.038;6.992;2022-10-26T12:52:30;112171.53;;;-144.33;83.87
19843;BME280;10082;51.038;6.992;2022-10-26T12:55:23;112171.53;;;-144.33;82.53
19843;BME280;10082;51.038;6.992;2022-10-26T12:58:09;112171.53;;;-144.33;81.55
19843;BME280;10082;51.038;6.992;2022-10-26T13:00:50;112171.53;;;-144.33;81.90
19843;BME280;10082;51.038;6.992;2022-10-26T13:03:47;112171.53;;;-144.33;82.32
19843;BME280;10082;51.038;6.992;2022-10-26T13:06:34;112171.53;;;-144.33;81.08
19843;BME280;10082;51.038;6.992;2022-10-26T13:09:12;112171.53;;;-144.33;82.06
19843;BME280;10082;51.038;6.992;2022-10-26T13:11:45;112171.53;;;-144.33;82.43
19843;BME280;10082;51.038;6.992;2022-10-26T13:14:28;112171.53;;;-144.33;81.47
19843;BME280;10082;51.038;6.992;2022-10-26T13:17:03;112171.53;;;-144.33;80.54
19843;BME280;10082;51.038;6.992;2022-10-26T13:19:42;112171.53;;;-144.33;79.82
19843;BME280;10082;51.038;6.992;2022-10-26T13:22:15;112171.53;;;-144.33;76.88
19843;BME280;10082;51.038;6.992;2022-10-26T13:24:47;112171.53;;;-144.33;76.28
19843;BME280;10082;51.038;6.992;2022-10-26T13:27:40;112171.53;;;-144.33;74.92
19843;BME280;10082;51.038;6.992;2022-10-26T13:33:17;112171.53;;;-144.33;73.18
19843;BME280;10082;51.038;6.992;2022-10-26T13:35:51;112171.53;;;-144.33;72.65
19843;BME280;10082;51.038;6.992;2022-10-26T13:38:29;112171.53;;;-144.33;71.55
19843;BME280;10082;51.038;6.992;2022-10-26T13:41:06;112171.53;;;-144.33;71.33
19843;BME280;10082;51.038;6.992;2022-10-26T13:43:37;112171.53;;;-144.33;70.16
19843;BME280;10082;51.038;6.992;2022-10-26T13:46:23;112171.53;;;-144.33;69.89
19843;BME280;10082;51.038;6.992;2022-10-26T13:49:17;112171.53;;;-144.33;69.33
19843;BME280;10082;51.038;6.992;2022-10-26T13:51:50;112171.53;;;-144.33;69.52
19843;BME280;10082;51.038;6.992;2022-10-26T13:54:28;112171.53;;;-144.33;68.77
19843;BME280;10082;51.038;6.992;2022-10-26T13:57:03;112171.53;;;-144.33;70.09